createdAt,value
2018-08-16T00:00:15.030Z,99336.27
2018-08-16T00:02:49.706Z,99328.22
2018-08-16T00:05:24.325Z,99326.07
2018-08-16T00:07:59.113Z,99327.91
2018-08-16T00:10:33.765Z,99330.39
2018-08-16T00:13:08.263Z,99323.17
2018-08-16T00:15:42.892Z,99328.54
2018-08-16T00:18:17.527Z,99323.95
2018-08-16T00:20:52.185Z,99323.95
2018-08-16T00:23:35.093Z,99328.07
2018-08-16T00:26:09.717Z,99326.47
2018-08-16T00:28:44.197Z,99326.66
2018-08-16T00:31:18.838Z,99324.97
2018-08-16T00:33:53.563Z,99319.69
2018-08-16T00:36:28.161Z,99319.98
2018-08-16T00:39:02.741Z,99316.55
2018-08-16T00:41:37.561Z,99313.36
2018-08-16T00:44:12.301Z,99320.02
2018-08-16T00:46:46.841Z,99321.64
2018-08-16T00:49:21.469Z,99323.40
2018-08-16T00:51:56.061Z,99323.97
2018-08-16T00:54:30.713Z,99319.97
2018-08-16T00:57:05.469Z,99321.82
2018-08-16T00:59:39.988Z,99322.59
2018-08-16T01:02:14.560Z,99323.81
2018-08-16T01:04:49.241Z,99316.45
2018-08-16T01:07:23.968Z,99320.27
2018-08-16T01:10:07.889Z,99310.60
2018-08-16T01:12:45.066Z,99316.34
2018-08-16T01:15:23.570Z,99314.20
2018-08-16T01:18:17.380Z,99312.12
2018-08-16T01:20:52.109Z,99312.12
2018-08-16T01:23:26.606Z,99311.45
2018-08-16T01:26:01.301Z,99303.67
2018-08-16T01:28:35.900Z,99305.49
2018-08-16T01:31:26.636Z,99306.53
2018-08-16T01:34:08.028Z,99309.73
2018-08-16T01:36:42.707Z,99308.37
2018-08-16T01:39:17.258Z,99302.53
2018-08-16T01:41:51.789Z,99308.48
2018-08-16T01:47:25.348Z,99299.98
2018-08-16T01:49:59.849Z,99302.98
2018-08-16T01:52:34.553Z,99299.77
2018-08-16T01:55:09.536Z,99302.66
2018-08-16T01:57:44.146Z,99302.23
2018-08-16T02:00:18.824Z,99304.52
2018-08-16T02:02:53.392Z,99303.26
2018-08-16T02:05:28.006Z,99301.66
2018-08-16T02:08:02.724Z,99297.41
2018-08-16T02:10:37.330Z,99301.08
2018-08-16T02:13:22.026Z,99295.47
2018-08-16T02:15:56.700Z,99290.91
2018-08-16T02:18:31.640Z,99290.91
2018-08-16T02:21:06.162Z,99292.05
2018-08-16T02:23:40.808Z,99288.49
2018-08-16T02:26:15.496Z,99286.42
2018-08-16T02:28:50.081Z,99284.59
2018-08-16T02:31:24.676Z,99287.92
2018-08-16T02:33:59.279Z,99279.67
2018-08-16T02:36:33.906Z,99285.41
2018-08-16T02:39:09.328Z,99286.34
2018-08-16T02:41:43.873Z,99280.59
2018-08-16T02:44:18.508Z,99280.49
2018-08-16T02:46:53.000Z,99274.53
2018-08-16T02:49:27.544Z,99276.26
2018-08-16T02:52:02.401Z,99268.92
2018-08-16T02:54:36.945Z,99272.14
2018-08-16T02:57:11.685Z,99273.27
2018-08-16T02:59:46.314Z,99268.82
2018-08-16T03:02:20.876Z,99264.59
2018-08-16T03:04:55.485Z,99261.72
2018-08-16T03:07:30.146Z,99261.62
2018-08-16T03:10:06.380Z,99260.25
2018-08-16T03:12:40.949Z,99266.18
2018-08-16T03:15:15.443Z,99256.13
2018-08-16T03:17:49.996Z,99254.63
2018-08-16T03:20:24.654Z,99241.13
2018-08-16T03:22:59.231Z,99240.33
2018-08-16T03:25:33.916Z,99243.08
2018-08-16T03:28:08.336Z,99237.34
2018-08-16T03:30:42.832Z,99233.01
2018-08-16T03:33:17.298Z,99235.84
2018-08-16T03:35:51.752Z,99233.56
2018-08-16T03:38:26.701Z,99233.01
2018-08-16T03:41:01.216Z,99226.13
2018-08-16T03:43:35.748Z,99227.41
2018-08-16T03:46:10.321Z,99228.79
2018-08-16T03:48:44.899Z,99229.57
2018-08-16T03:51:19.628Z,99229.38
2018-08-16T03:53:54.353Z,99225.47
2018-08-16T03:56:29.285Z,99223.42
2018-08-16T03:59:04.016Z,99220.44
2018-08-16T04:01:38.639Z,99217.47
2018-08-16T04:04:13.292Z,99219.30
2018-08-16T04:06:47.906Z,99224.47
2018-08-16T04:09:25.304Z,99220.00
2018-08-16T04:11:59.975Z,99222.19
2018-08-16T04:14:34.557Z,99219.09
2018-08-16T04:17:09.208Z,99227.80
2018-08-16T04:19:43.944Z,99230.31
2018-08-16T04:22:18.497Z,99226.53
2018-08-16T04:24:53.073Z,99233.52
2018-08-16T04:27:28.082Z,99229.16
2018-08-16T04:30:02.497Z,99230.86
2018-08-16T04:32:37.005Z,99231.30
2018-08-16T04:35:11.549Z,99234.85
2018-08-16T04:37:45.978Z,99234.05
2018-08-16T04:40:20.530Z,99234.17
2018-08-16T04:42:55.318Z,99235.09
2018-08-16T04:45:29.832Z,99230.98
2018-08-16T04:48:04.469Z,99223.33
2018-08-16T04:50:39.032Z,99228.79
2018-08-16T04:53:13.614Z,99229.83
2018-08-16T04:55:48.029Z,99230.40
2018-08-16T04:58:22.657Z,99224.55
2018-08-16T05:00:57.340Z,99228.67
2018-08-16T05:03:31.768Z,99226.48
2018-08-16T05:06:06.441Z,99224.98
2018-08-16T05:08:41.468Z,99228.89
2018-08-16T05:11:16.053Z,99223.50
2018-08-16T05:13:50.621Z,99227.50
2018-08-16T05:16:25.264Z,99221.73
2018-08-16T05:18:59.707Z,99223.08
2018-08-16T05:21:34.157Z,99226.82
2018-08-16T05:24:08.704Z,99231.52
2018-08-16T05:26:43.358Z,99223.59
2018-08-16T05:29:17.995Z,99221.08
2018-08-16T05:31:52.699Z,99228.53
2018-08-16T05:34:27.202Z,99222.02
2018-08-16T05:37:01.867Z,99221.23
2018-08-16T05:39:36.551Z,99216.91
2018-08-16T05:42:11.090Z,99226.20
2018-08-16T05:44:46.065Z,99218.34
2018-08-16T05:47:20.542Z,99225.91
2018-08-16T05:49:55.130Z,99224.73
2018-08-16T05:52:29.731Z,99222.80
2018-08-16T05:55:04.572Z,99220.27
2018-08-16T05:57:39.550Z,99214.54
2018-08-16T06:00:14.556Z,99214.84
2018-08-16T06:02:49.143Z,99212.78
2018-08-16T06:05:23.877Z,99213.79
2018-08-16T06:07:58.671Z,99205.86
2018-08-16T06:10:33.326Z,99208.70
2018-08-16T06:13:08.057Z,99191.70
2018-08-16T06:15:42.661Z,99186.81
2018-08-16T06:18:17.104Z,99181.98
2018-08-16T06:20:51.563Z,99197.75
2018-08-16T06:23:26.085Z,99175.72
2018-08-16T06:26:00.464Z,99186.72
2018-08-16T06:28:35.104Z,99183.72
2018-08-16T06:31:09.783Z,99176.72
2018-08-16T06:33:44.337Z,99177.55
2018-08-16T06:36:18.980Z,99180.93
2018-08-16T06:38:53.636Z,99181.02
2018-08-16T06:41:28.007Z,99176.16
2018-08-16T06:44:02.999Z,99182.91
2018-08-16T06:46:37.507Z,99175.98
2018-08-16T06:49:12.007Z,99170.78
2018-08-16T06:51:46.537Z,99180.26
2018-08-16T06:54:20.938Z,99178.13
2018-08-16T06:56:55.557Z,99172.05
2018-08-16T06:59:29.949Z,99177.98
2018-08-16T07:02:04.857Z,99175.14
2018-08-16T07:04:39.346Z,99176.43
2018-08-16T07:07:14.171Z,99171.33
2018-08-16T07:09:48.840Z,99173.56
2018-08-16T07:12:23.605Z,99174.61
2018-08-16T07:14:58.344Z,99169.16
2018-08-16T07:17:32.820Z,99165.77
2018-08-16T07:20:07.648Z,99169.73
2018-08-16T07:22:42.165Z,99170.87
2018-08-16T07:25:16.690Z,99161.94
2018-08-16T07:27:51.117Z,99168.14
2018-08-16T07:30:25.565Z,99172.15
2018-08-16T07:33:00.210Z,99163.11
2018-08-16T07:35:34.754Z,99169.17
2018-08-16T07:38:09.222Z,99169.41
2018-08-16T07:40:43.888Z,99157.78
2018-08-16T07:43:18.283Z,99159.55
2018-08-16T07:45:53.053Z,99156.41
2018-08-16T07:48:27.611Z,99158.14
2018-08-16T07:51:02.353Z,99165.98
2018-08-16T07:53:36.806Z,99163.72
2018-08-16T07:56:11.216Z,99171.85
2018-08-16T07:58:45.732Z,99168.17
2018-08-16T08:01:20.255Z,99170.25
2018-08-16T08:03:54.928Z,99162.69
2018-08-16T08:06:29.628Z,99170.42
2018-08-16T08:09:05.751Z,99171.42
2018-08-16T08:11:40.268Z,99166.83
2018-08-16T08:14:14.936Z,99168.50
2018-08-16T08:16:49.479Z,99168.88
2018-08-16T08:19:24.102Z,99169.88
2018-08-16T08:21:58.685Z,99178.09
2018-08-16T08:24:33.298Z,99180.71
2018-08-16T08:27:08.014Z,99178.13
2018-08-16T08:29:42.530Z,99172.63
2018-08-16T08:32:17.081Z,99167.41
2018-08-16T08:34:51.520Z,99171.66
2018-08-16T08:37:37.577Z,99168.46
2018-08-16T08:40:12.357Z,99163.91
2018-08-16T08:42:46.853Z,99168.77
2018-08-16T08:45:21.487Z,99165.20
2018-08-16T08:47:56.088Z,99163.14
2018-08-16T08:50:30.588Z,99162.25
2018-08-16T08:53:16.557Z,99156.73
2018-08-16T08:56:02.392Z,99153.84
2018-08-16T08:58:51.525Z,99147.36
2018-08-16T09:01:27.160Z,99146.15
2018-08-16T09:04:01.656Z,99141.70
2018-08-16T09:06:36.265Z,99140.04
2018-08-16T09:09:10.845Z,99136.55
2018-08-16T09:11:56.829Z,99131.63
2018-08-16T09:14:42.877Z,99124.10
2018-08-16T09:17:17.266Z,99126.48
2018-08-16T09:19:51.932Z,99134.22
2018-08-16T09:22:26.573Z,99125.16
2018-08-16T09:25:01.262Z,99121.35
2018-08-16T09:27:35.777Z,99122.44
2018-08-16T09:30:23.112Z,99119.27
2018-08-16T09:33:09.010Z,99117.42
2018-08-16T09:35:43.524Z,99111.31
2018-08-16T09:38:18.145Z,99115.06
2018-08-16T09:40:52.589Z,99110.81
2018-08-16T09:43:27.548Z,99113.66
2018-08-16T09:47:13.446Z,99109.95
2018-08-16T09:49:49.700Z,99104.17
2018-08-16T09:52:24.171Z,99098.04
2018-08-16T09:54:58.634Z,99095.63
2018-08-16T09:57:33.279Z,99100.88
2018-08-16T10:00:07.769Z,99099.47
2018-08-16T10:02:42.245Z,99100.02
2018-08-16T10:05:16.718Z,99091.45
2018-08-16T10:07:51.199Z,99094.52
2018-08-16T10:10:25.790Z,99083.88
2018-08-16T10:13:00.734Z,99081.03
2018-08-16T10:15:35.157Z,99082.25
2018-08-16T10:18:09.725Z,99079.33
2018-08-16T10:20:44.306Z,99077.41
2018-08-16T10:23:19.523Z,99081.84
2018-08-16T10:25:54.535Z,99079.41
2018-08-16T10:28:29.068Z,99079.89
2018-08-16T10:31:03.821Z,99077.78
2018-08-16T10:33:38.417Z,99072.63
2018-08-16T10:36:13.040Z,99076.91
2018-08-16T10:38:47.538Z,99071.20
2018-08-16T10:41:22.030Z,99069.61
2018-08-16T10:43:56.622Z,99067.88
2018-08-16T10:46:31.321Z,99061.98
2018-08-16T10:49:05.856Z,99064.23
2018-08-16T10:51:40.318Z,99060.50
2018-08-16T10:54:14.963Z,99059.05
2018-08-16T10:56:50.210Z,99066.81
2018-08-16T10:59:24.689Z,99053.59
2018-08-16T11:01:59.191Z,99057.08
2018-08-16T11:04:33.905Z,99066.42
2018-08-16T11:07:08.566Z,99056.20
2018-08-16T11:09:43.152Z,99053.56
2018-08-16T11:12:17.835Z,99039.09
2018-08-16T11:14:52.474Z,99052.52
2018-08-16T11:17:27.156Z,99051.94
2018-08-16T11:20:01.799Z,99048.63
2018-08-16T11:22:36.408Z,99049.88
2018-08-16T11:25:11.102Z,99049.73
2018-08-16T11:27:45.764Z,99050.98
2018-08-16T11:30:20.416Z,99051.38
2018-08-16T11:32:55.280Z,99051.61
2018-08-16T11:35:29.777Z,99052.29
2018-08-16T11:38:04.257Z,99055.84
2018-08-16T11:40:38.642Z,99054.49
2018-08-16T11:43:13.262Z,99048.75
2018-08-16T11:45:47.954Z,99039.44
2018-08-16T11:48:22.469Z,99034.47
2018-08-16T11:50:57.296Z,99041.65
2018-08-16T11:53:31.833Z,99037.20
2018-08-16T11:56:06.481Z,99035.19
2018-08-16T11:58:41.142Z,99029.18
2018-08-16T12:01:15.524Z,99026.69
2018-08-16T12:03:50.020Z,99026.37
2018-08-16T12:06:24.547Z,99012.93
2018-08-16T12:08:58.984Z,99017.31
2018-08-16T12:11:33.488Z,99013.98
2018-08-16T12:14:08.096Z,99011.03
2018-08-16T12:16:42.620Z,99026.08
2018-08-16T12:19:16.997Z,99006.85
2018-08-16T12:21:51.872Z,99011.27
2018-08-16T12:24:26.616Z,99006.19
2018-08-16T12:27:01.097Z,99002.87
2018-08-16T12:29:35.676Z,98993.27
2018-08-16T12:32:10.295Z,98997.80
2018-08-16T12:34:45.070Z,98997.92
2018-08-16T12:37:19.845Z,98992.41
2018-08-16T12:39:54.760Z,98985.96
2018-08-16T12:42:29.321Z,98982.40
2018-08-16T12:45:04.477Z,98976.06
2018-08-16T12:47:39.324Z,98973.67
2018-08-16T12:50:13.710Z,98978.16
2018-08-16T12:52:48.419Z,98972.73
2018-08-16T12:55:22.929Z,98964.63
2018-08-16T12:57:57.530Z,98962.47
2018-08-16T13:00:32.100Z,98970.23
2018-08-16T13:03:06.856Z,98967.38
2018-08-16T13:05:41.310Z,98965.28
2018-08-16T13:08:15.772Z,98951.86
2018-08-16T13:10:50.641Z,98951.55
2018-08-16T13:13:25.318Z,98951.86
2018-08-16T13:15:59.845Z,98950.78
2018-08-16T13:18:34.657Z,98951.54
2018-08-16T13:21:09.231Z,98944.31
2018-08-16T13:23:43.842Z,98941.98
2018-08-16T13:26:18.404Z,98945.59
2018-08-16T13:28:53.538Z,98946.56
2018-08-16T13:31:28.135Z,98942.45
2018-08-16T13:34:02.721Z,98934.64
2018-08-16T13:36:37.384Z,98935.32
2018-08-16T13:39:13.752Z,98934.42
2018-08-16T13:41:48.400Z,98937.14
2018-08-16T13:44:22.917Z,98936.90
2018-08-16T13:46:57.604Z,98934.89
2018-08-16T13:49:32.150Z,98929.08
2018-08-16T13:52:07.430Z,98931.98
2018-08-16T13:54:41.987Z,98925.52
2018-08-16T13:57:16.533Z,98921.66
2018-08-16T13:59:51.089Z,98922.39
2018-08-16T14:02:25.618Z,98915.66
2018-08-16T14:05:00.174Z,98914.28
2018-08-16T14:07:34.780Z,98913.59
2018-08-16T14:10:09.693Z,98911.92
2018-08-16T14:12:44.326Z,98909.38
2018-08-16T14:15:18.853Z,98911.77
2018-08-16T14:17:53.548Z,98910.77
2018-08-16T14:20:28.040Z,98908.94
2018-08-16T14:23:02.669Z,98908.44
2018-08-16T14:25:37.294Z,98909.75
2018-08-16T14:28:11.942Z,98905.81
2018-08-16T14:30:46.645Z,98898.47
2018-08-16T14:33:21.391Z,98900.69
2018-08-16T14:35:56.025Z,98896.98
2018-08-16T14:38:30.562Z,98897.47
2018-08-16T14:41:05.177Z,98886.03
2018-08-16T14:43:39.684Z,98894.52
2018-08-16T14:46:14.359Z,98884.45
2018-08-16T14:48:48.924Z,98884.30
2018-08-16T14:51:23.659Z,98889.81
2018-08-16T14:53:58.144Z,98885.30
2018-08-16T14:56:32.886Z,98878.64
2018-08-16T14:59:07.440Z,98882.16
2018-08-16T15:01:42.317Z,98877.34
2018-08-16T15:04:16.889Z,98879.59
2018-08-16T15:06:51.489Z,98878.58
2018-08-16T15:09:26.120Z,98880.91
2018-08-16T15:12:00.706Z,98877.12
2018-08-16T15:14:35.389Z,98881.36
2018-08-16T15:17:10.391Z,98882.92
2018-08-16T15:19:45.058Z,98877.11
2018-08-16T15:22:19.652Z,98872.87
2018-08-16T15:24:54.438Z,98882.77
2018-08-16T15:27:28.948Z,98881.34
2018-08-16T15:30:03.383Z,98879.66
2018-08-16T15:32:37.991Z,98872.11
2018-08-16T15:35:12.532Z,98867.09
2018-08-16T15:37:47.162Z,98869.19
2018-08-16T15:40:21.582Z,98869.31
2018-08-16T15:42:56.354Z,98861.64
2018-08-16T15:45:30.951Z,98863.94
2018-08-16T15:48:09.757Z,98861.88
2018-08-16T15:50:45.135Z,98868.46
2018-08-16T15:53:19.545Z,98858.98
2018-08-16T15:55:54.178Z,98852.58
2018-08-16T15:58:28.652Z,98853.36
2018-08-16T16:01:03.246Z,98853.59
2018-08-16T16:03:37.723Z,98855.23
2018-08-16T16:06:12.528Z,98853.78
2018-08-16T16:08:46.789Z,98852.66
2018-08-16T16:11:21.296Z,98850.42
2018-08-16T16:13:55.906Z,98856.12
2018-08-16T16:16:30.476Z,98849.63
2018-08-16T16:19:05.156Z,98844.99
2018-08-16T16:21:39.861Z,98846.17
2018-08-16T16:24:14.502Z,98837.83
2018-08-16T16:26:49.034Z,98840.32
2018-08-16T16:29:23.631Z,98839.06
2018-08-16T16:31:58.308Z,98838.09
2018-08-16T16:34:32.953Z,98835.06
2018-08-16T16:37:07.575Z,98840.25
2018-08-16T16:39:42.160Z,98833.16
2018-08-16T16:42:16.773Z,98830.66
2018-08-16T16:44:58.956Z,98829.45
2018-08-16T16:47:44.837Z,98828.66
2018-08-16T16:50:25.440Z,98826.02
2018-08-16T16:53:02.437Z,98827.95
2018-08-16T16:55:40.230Z,98822.30
2018-08-16T16:58:14.905Z,98818.03
2018-08-16T17:00:49.518Z,98821.06
2018-08-16T17:03:37.323Z,98820.22
2018-08-16T17:06:11.821Z,98816.33
2018-08-16T17:08:46.512Z,98818.64
2018-08-16T17:11:21.216Z,98819.84
2018-08-16T17:13:55.854Z,98820.26
2018-08-16T17:16:30.620Z,98807.55
2018-08-16T17:19:05.357Z,98809.49
2018-08-16T17:21:39.865Z,98813.80
2018-08-16T17:24:14.533Z,98815.64
2018-08-16T17:26:49.047Z,98819.09
2018-08-16T17:29:23.568Z,98814.05
2018-08-16T17:31:58.240Z,98821.88
2018-08-16T17:34:32.810Z,98824.20
2018-08-16T17:37:07.653Z,98819.53
2018-08-16T17:39:42.228Z,98820.54
2018-08-16T17:42:16.788Z,98811.97
2018-08-16T17:44:51.306Z,98813.86
2018-08-16T17:47:25.880Z,98812.27
2018-08-16T17:50:00.395Z,98812.39
2018-08-16T17:52:35.026Z,98813.55
2018-08-16T17:55:09.736Z,98813.78
2018-08-16T17:57:44.256Z,98816.17
2018-08-16T18:00:18.972Z,98813.23
2018-08-16T18:02:53.427Z,98813.48
2018-08-16T18:05:28.161Z,98813.20
2018-08-16T18:08:02.776Z,98814.47
2018-08-16T18:10:37.392Z,98814.46
2018-08-16T18:13:12.032Z,98815.56
2018-08-16T18:15:46.647Z,98811.53
2018-08-16T18:18:21.053Z,98812.41
2018-08-16T18:20:55.549Z,98814.66
2018-08-16T18:23:30.156Z,98810.30
2018-08-16T18:26:04.688Z,98808.05
2018-08-16T18:28:39.357Z,98812.45
2018-08-16T18:31:13.864Z,98812.08
2018-08-16T18:33:48.417Z,98810.38
2018-08-16T18:36:23.073Z,98815.59
2018-08-16T18:38:57.803Z,98816.51
2018-08-16T18:41:32.308Z,98816.57
2018-08-16T18:44:07.186Z,98814.26
2018-08-16T18:46:41.677Z,98811.45
2018-08-16T18:49:16.968Z,98813.69
2018-08-16T18:51:51.393Z,98814.73
2018-08-16T18:54:25.878Z,98821.30
2018-08-16T18:57:00.420Z,98827.69
2018-08-16T18:59:35.053Z,98832.11
2018-08-16T19:02:09.836Z,98829.14
2018-08-16T19:04:44.456Z,98836.59
2018-08-16T19:07:19.101Z,98832.41
2018-08-16T19:09:53.680Z,98827.10
2018-08-16T19:12:28.117Z,98827.72
2018-08-16T19:15:02.724Z,98831.88
2018-08-16T19:17:37.372Z,98827.33
2018-08-16T19:20:12.373Z,98832.50
2018-08-16T19:22:47.001Z,98832.72
2018-08-16T19:25:21.572Z,98828.95
2018-08-16T19:27:56.289Z,98834.13
2018-08-16T19:30:30.957Z,98841.27
2018-08-16T19:33:05.643Z,98839.48
2018-08-16T19:35:40.269Z,98836.71
2018-08-16T19:38:14.748Z,98840.48
2018-08-16T19:40:49.285Z,98843.45
2018-08-16T19:43:23.829Z,98846.43
2018-08-16T19:45:58.580Z,98846.03
2018-08-16T19:48:33.366Z,98847.03
2018-08-16T19:51:08.284Z,98851.99
2018-08-16T19:53:42.745Z,98844.67
2018-08-16T19:56:17.410Z,98848.44
2018-08-16T19:58:51.966Z,98848.63
2018-08-16T20:01:26.795Z,98844.88
2018-08-16T20:04:01.349Z,98845.86
2018-08-16T20:06:35.757Z,98844.42
2018-08-16T20:09:11.357Z,98842.45
2018-08-16T20:11:45.937Z,98844.63
2018-08-16T20:14:20.592Z,98839.88
2018-08-16T20:16:55.108Z,98834.14
2018-08-16T20:19:29.856Z,98838.27
2018-08-16T20:22:05.445Z,98840.45
2018-08-16T20:24:40.171Z,98837.47
2018-08-16T20:27:15.064Z,98838.27
2018-08-16T20:29:49.741Z,98833.91
2018-08-16T20:32:24.317Z,98835.89
2018-08-16T20:34:59.041Z,98840.43
2018-08-16T20:37:33.594Z,98846.17
2018-08-16T20:40:08.186Z,98851.11
2018-08-16T20:42:42.769Z,98847.95
2018-08-16T20:45:17.284Z,98847.95
2018-08-16T20:47:51.948Z,98848.44
2018-08-16T20:50:26.646Z,98858.17
2018-08-16T20:53:01.208Z,98851.27
2018-08-16T20:55:35.853Z,98861.16
2018-08-16T20:58:28.352Z,98858.37
2018-08-16T21:04:18.846Z,98855.94
2018-08-16T21:06:53.488Z,98860.09
2018-08-16T21:09:28.000Z,98862.45
2018-08-16T21:12:02.648Z,98855.09
2018-08-16T21:14:37.272Z,98850.98
2018-08-16T21:17:12.003Z,98858.89
2018-08-16T21:19:46.535Z,98852.92
2018-08-16T21:22:21.136Z,98860.02
2018-08-16T21:24:55.693Z,98864.31
2018-08-16T21:27:30.129Z,98862.55
2018-08-16T21:30:06.151Z,98862.84
2018-08-16T21:32:40.761Z,98862.28
2018-08-16T21:35:15.274Z,98861.55
2018-08-16T21:37:49.844Z,98861.94
2018-08-16T21:40:24.443Z,98862.67
2018-08-16T21:42:58.896Z,98869.77
2018-08-16T21:45:33.488Z,98865.81
2018-08-16T21:48:07.942Z,98864.73
2018-08-16T21:50:42.503Z,98872.84
2018-08-16T21:53:17.157Z,98864.36
2018-08-16T21:55:51.734Z,98866.31
2018-08-16T21:58:26.434Z,98867.59
2018-08-16T22:01:04.808Z,98870.75
2018-08-16T22:03:39.325Z,98874.88
2018-08-16T22:06:25.117Z,98873.33
2018-08-16T22:08:59.686Z,98871.95
2018-08-16T22:11:34.135Z,98873.09
2018-08-16T22:14:08.841Z,98874.98
2018-08-16T22:16:43.372Z,98869.10
2018-08-16T22:19:18.089Z,98872.64
2018-08-16T22:21:52.921Z,98864.86
2018-08-16T22:24:27.572Z,98868.47
2018-08-16T22:27:02.141Z,98871.44
2018-08-16T22:29:36.685Z,98865.30
2018-08-16T22:32:11.303Z,98873.87
2018-08-16T22:34:46.077Z,98865.66
2018-08-16T22:37:20.552Z,98871.25
2018-08-16T22:39:55.014Z,98868.48
2018-08-16T22:42:29.579Z,98864.91
2018-08-16T22:45:04.491Z,98865.66
2018-08-16T22:47:39.144Z,98861.14
2018-08-16T22:50:13.681Z,98867.83
2018-08-16T22:52:48.300Z,98867.34
2018-08-16T22:55:22.827Z,98862.63
2018-08-16T22:57:57.516Z,98862.43
2018-08-16T23:00:32.194Z,98866.45
2018-08-16T23:03:06.884Z,98856.80
2018-08-16T23:05:41.697Z,98860.23
2018-08-16T23:08:16.332Z,98855.08
2018-08-16T23:10:50.794Z,98856.31
2018-08-16T23:13:25.438Z,98860.84
2018-08-16T23:16:00.038Z,98862.41
2018-08-16T23:18:34.659Z,98852.91
2018-08-16T23:21:09.301Z,98850.25
2018-08-16T23:23:43.952Z,98849.11
2018-08-16T23:26:18.501Z,98846.73
2018-08-16T23:28:53.086Z,98838.91
2018-08-16T23:31:27.689Z,98845.19
2018-08-16T23:34:02.308Z,98838.44
2018-08-16T23:36:36.716Z,98836.13
2018-08-16T23:39:11.350Z,98839.47
2018-08-16T23:41:45.912Z,98831.06
2018-08-16T23:44:20.457Z,98830.73
2018-08-16T23:46:55.125Z,98832.08
2018-08-16T23:49:29.882Z,98830.88
2018-08-16T23:52:04.421Z,98828.66
2018-08-16T23:54:38.971Z,98830.48
2018-08-16T23:57:13.562Z,98827.01
2018-08-16T23:59:48.169Z,98824.66
